Hauptseite
METAR-TAF:

METAR-TAF

Flughäfen :

Harare, Simbabwe

Flughafen Harare International

Breite: 17-55S, Länge: 031-08E, Höhe: 1479 m

Beobachtung

Neuester Wetterbericht von vor 49 Minuten, um 23:00 UTC
Wind 4 kt aus Nord/Nordwest
Temperatur 13°C
Luftfeuchtigkeit 54%
Luftdruck 1019 hPa
Sichtweite 10 km oder mehr
keine Wolken unter 1500 m und keine Kumulonimbus oder Gewitterwolken

METAR: FVHA 162300Z 34004KT CAVOK 13/04 Q1019 NOSIG

Zeit: 01:49 (23:49 UTC)

Prognose

Neuester Wetterbericht von vor 1 Stunde und 49 Minuten, um 22:00 UTC
Gültige Prognose vom 17 um 00 UTC bis 18 um 06 UTC
Wind 8 kt aus Nordost
Sichtweite 10 km oder mehr
keine Wolken unter 1500 m und keine Kumulonimbus oder Gewitterwolken

TAF: FVHA 162200Z 1700/1806 04008KT CAVOK

Wetterbeobachtungen und Prognosen von mehr als 4000 Flughäfen (METAR und TAF Bericht).

Die verfügbaren Stationen werden durch gelbe und rote Markierungen auf der Karte dargestellt.

Führen Sie die Maus auf sie, um den Namen der Station zu sehen.

Darauf klicken, um die Beobachtung von Wetterbeobachtungen und Prognosen zu sehen.

Um die Karte zu ändern : klicken Sie auf den grünen Tasten mit einem schwarzen Kreuz Zum Vergrößern, auf den grünen Button mit einem Gedankenstrich zu verkleinern, oder auf die grünen Pfeile für benachbarte Karten.


METAR-TAF: